sensor_id;sensor_type;location;lat;lon;timestamp;temperature;humidity
8862;DHT22;4799;50.996;4.754;2023-04-03T00:01:36;2.30;99.90
8862;DHT22;4799;50.996;4.754;2023-04-03T00:04:04;2.30;99.90
8862;DHT22;4799;50.996;4.754;2023-04-03T00:06:31;2.30;99.90
8862;DHT22;4799;50.996;4.754;2023-04-03T00:08:57;2.20;99.90
8862;DHT22;4799;50.996;4.754;2023-04-03T00:11:22;2.20;99.90
8862;DHT22;4799;50.996;4.754;2023-04-03T00:13:49;2.30;99.90
8862;DHT22;4799;50.996;4.754;2023-04-03T00:16:15;2.20;99.90
8862;DHT22;4799;50.996;4.754;2023-04-03T00:18:41;2.20;99.90
8862;DHT22;4799;50.996;4.754;2023-04-03T00:21:07;2.20;99.90
8862;DHT22;4799;50.996;4.754;2023-04-03T00:23:33;2.20;99.90
8862;DHT22;4799;50.996;4.754;2023-04-03T00:25:59;2.20;99.90
8862;DHT22;4799;50.996;4.754;2023-04-03T00:28:25;2.10;99.90
8862;DHT22;4799;50.996;4.754;2023-04-03T00:30:52;2.20;99.90
8862;DHT22;4799;50.996;4.754;2023-04-03T00:33:18;2.20;99.90
8862;DHT22;4799;50.996;4.754;2023-04-03T00:35:47;2.20;99.90
8862;DHT22;4799;50.996;4.754;2023-04-03T00:38:14;2.20;99.90
8862;DHT22;4799;50.996;4.754;2023-04-03T00:40:43;2.10;99.90
8862;DHT22;4799;50.996;4.754;2023-04-03T00:43:22;2.10;99.90
8862;DHT22;4799;50.996;4.754;2023-04-03T00:45:52;2.10;99.90
8862;DHT22;4799;50.996;4.754;2023-04-03T00:48:42;2.10;99.90
8862;DHT22;4799;50.996;4.754;2023-04-03T00:51:16;2.00;99.90
8862;DHT22;4799;50.996;4.754;2023-04-03T00:53:47;2.00;99.90
8862;DHT22;4799;50.996;4.754;2023-04-03T00:56:17;1.90;99.90
8862;DHT22;4799;50.996;4.754;2023-04-03T00:58:53;1.90;99.90
8862;DHT22;4799;50.996;4.754;2023-04-03T01:01:26;1.90;99.90
8862;DHT22;4799;50.996;4.754;2023-04-03T01:03:52;1.90;99.90
8862;DHT22;4799;50.996;4.754;2023-04-03T01:06:23;1.80;99.90
8862;DHT22;4799;50.996;4.754;2023-04-03T01:08:52;1.80;99.90
8862;DHT22;4799;50.996;4.754;2023-04-03T01:11:18;1.80;99.90
8862;DHT22;4799;50.996;4.754;2023-04-03T01:13:44;1.70;99.90
8862;DHT22;4799;50.996;4.754;2023-04-03T01:16:10;1.70;99.90
8862;DHT22;4799;50.996;4.754;2023-04-03T01:18:37;1.70;99.90
8862;DHT22;4799;50.996;4.754;2023-04-03T01:26:36;1.70;99.90
8862;DHT22;4799;50.996;4.754;2023-04-03T01:29:03;1.70;99.90
8862;DHT22;4799;50.996;4.754;2023-04-03T01:31:48;1.70;99.90
8862;DHT22;4799;50.996;4.754;2023-04-03T01:34:14;1.70;99.90
8862;DHT22;4799;50.996;4.754;2023-04-03T01:36:40;1.60;99.90
8862;DHT22;4799;50.996;4.754;2023-04-03T01:39:06;1.60;99.90
8862;DHT22;4799;50.996;4.754;2023-04-03T01:41:32;1.50;99.90
8862;DHT22;4799;50.996;4.754;2023-04-03T01:43:58;1.50;99.90
8862;DHT22;4799;50.996;4.754;2023-04-03T01:46:24;1.40;99.90
8862;DHT22;4799;50.996;4.754;2023-04-03T01:48:49;1.40;99.90
8862;DHT22;4799;50.996;4.754;2023-04-03T01:51:15;1.30;99.90
8862;DHT22;4799;50.996;4.754;2023-04-03T01:53:41;1.30;99.90
8862;DHT22;4799;50.996;4.754;2023-04-03T01:56:07;1.20;99.90
8862;DHT22;4799;50.996;4.754;2023-04-03T01:58:33;1.20;99.90
8862;DHT22;4799;50.996;4.754;2023-04-03T02:00:59;1.30;99.90
8862;DHT22;4799;50.996;4.754;2023-04-03T02:03:24;1.30;99.90
8862;DHT22;4799;50.996;4.754;2023-04-03T02:05:50;1.30;99.90
8862;DHT22;4799;50.996;4.754;2023-04-03T02:08:16;1.30;99.90
8862;DHT22;4799;50.996;4.754;2023-04-03T02:10:49;1.30;99.90
8862;DHT22;4799;50.996;4.754;2023-04-03T02:13:16;1.20;99.90
8862;DHT22;4799;50.996;4.754;2023-04-03T02:15:42;1.20;99.90
8862;DHT22;4799;50.996;4.754;2023-04-03T02:18:08;1.20;99.90
8862;DHT22;4799;50.996;4.754;2023-04-03T02:20:34;1.20;99.90
8862;DHT22;4799;50.996;4.754;2023-04-03T02:23:00;1.10;99.90
8862;DHT22;4799;50.996;4.754;2023-04-03T02:25:26;1.10;99.90
8862;DHT22;4799;50.996;4.754;2023-04-03T02:27:52;1.00;99.90
8862;DHT22;4799;50.996;4.754;2023-04-03T02:30:18;0.90;99.90
8862;DHT22;4799;50.996;4.754;2023-04-03T02:32:43;0.90;99.90
8862;DHT22;4799;50.996;4.754;2023-04-03T02:35:10;0.90;99.90
8862;DHT22;4799;50.996;4.754;2023-04-03T02:37:37;0.80;99.90
8862;DHT22;4799;50.996;4.754;2023-04-03T02:40:03;0.70;99.90
8862;DHT22;4799;50.996;4.754;2023-04-03T02:42:29;0.60;99.90
8862;DHT22;4799;50.996;4.754;2023-04-03T02:44:55;0.60;99.90
8862;DHT22;4799;50.996;4.754;2023-04-03T02:47:21;0.60;99.90
8862;DHT22;4799;50.996;4.754;2023-04-03T02:49:47;0.50;99.90
8862;DHT22;4799;50.996;4.754;2023-04-03T02:52:13;0.40;99.90
8862;DHT22;4799;50.996;4.754;2023-04-03T02:54:40;0.40;99.90
8862;DHT22;4799;50.996;4.754;2023-04-03T02:57:06;0.30;99.90
8862;DHT22;4799;50.996;4.754;2023-04-03T02:59:35;0.30;99.90
8862;DHT22;4799;50.996;4.754;2023-04-03T03:02:01;0.20;99.90
8862;DHT22;4799;50.996;4.754;2023-04-03T03:04:27;0.20;99.90
8862;DHT22;4799;50.996;4.754;2023-04-03T03:06:52;0.20;99.90
8862;DHT22;4799;50.996;4.754;2023-04-03T03:09:18;0.10;99.90
8862;DHT22;4799;50.996;4.754;2023-04-03T03:11:44;0.10;99.90
8862;DHT22;4799;50.996;4.754;2023-04-03T03:14:10;0.10;99.90
8862;DHT22;4799;50.996;4.754;2023-04-03T03:16:36;0.00;99.90
8862;DHT22;4799;50.996;4.754;2023-04-03T03:19:01;0.00;99.90
8862;DHT22;4799;50.996;4.754;2023-04-03T03:21:27;0.00;99.90
8862;DHT22;4799;50.996;4.754;2023-04-03T03:23:53;0.00;99.90
8862;DHT22;4799;50.996;4.754;2023-04-03T03:26:19;0.00;99.90
8862;DHT22;4799;50.996;4.754;2023-04-03T03:28:45;0.00;99.90
8862;DHT22;4799;50.996;4.754;2023-04-03T03:31:11;0.00;99.90
8862;DHT22;4799;50.996;4.754;2023-04-03T03:33:37;0.00;99.90
8862;DHT22;4799;50.996;4.754;2023-04-03T03:36:03;0.00;99.90
8862;DHT22;4799;50.996;4.754;2023-04-03T03:38:29;0.00;99.90
8862;DHT22;4799;50.996;4.754;2023-04-03T03:40:55;0.00;99.90
8862;DHT22;4799;50.996;4.754;2023-04-03T03:43:21;-0.10;99.90
8862;DHT22;4799;50.996;4.754;2023-04-03T03:45:50;-0.10;99.90
8862;DHT22;4799;50.996;4.754;2023-04-03T03:48:16;-0.20;99.90
8862;DHT22;4799;50.996;4.754;2023-04-03T03:50:42;-0.10;99.90
8862;DHT22;4799;50.996;4.754;2023-04-03T03:53:08;-0.10;99.90
8862;DHT22;4799;50.996;4.754;2023-04-03T03:55:33;-0.20;99.90
8862;DHT22;4799;50.996;4.754;2023-04-03T03:57:59;-0.10;99.90
8862;DHT22;4799;50.996;4.754;2023-04-03T04:00:26;-0.10;99.90
8862;DHT22;4799;50.996;4.754;2023-04-03T04:02:52;-0.20;99.90
8862;DHT22;4799;50.996;4.754;2023-04-03T04:05:18;-0.10;99.90
8862;DHT22;4799;50.996;4.754;2023-04-03T04:07:44;-0.10;99.90
8862;DHT22;4799;50.996;4.754;2023-04-03T04:10:10;-0.10;99.90
8862;DHT22;4799;50.996;4.754;2023-04-03T04:12:35;0.00;99.90
8862;DHT22;4799;50.996;4.754;2023-04-03T04:15:02;0.00;99.90
8862;DHT22;4799;50.996;4.754;2023-04-03T04:17:28;0.00;99.90
8862;DHT22;4799;50.996;4.754;2023-04-03T04:19:53;0.00;99.90
8862;DHT22;4799;50.996;4.754;2023-04-03T04:22:19;0.00;99.90
8862;DHT22;4799;50.996;4.754;2023-04-03T04:24:45;0.00;99.90
8862;DHT22;4799;50.996;4.754;2023-04-03T04:27:10;-0.10;99.90
8862;DHT22;4799;50.996;4.754;2023-04-03T04:29:36;-0.10;99.90
8862;DHT22;4799;50.996;4.754;2023-04-03T04:32:03;-0.20;99.90
8862;DHT22;4799;50.996;4.754;2023-04-03T04:34:30;-0.20;99.90
8862;DHT22;4799;50.996;4.754;2023-04-03T04:36:56;-0.20;99.90
8862;DHT22;4799;50.996;4.754;2023-04-03T04:39:21;-0.30;99.90
8862;DHT22;4799;50.996;4.754;2023-04-03T04:41:47;-0.40;99.90
8862;DHT22;4799;50.996;4.754;2023-04-03T04:44:13;-0.40;99.90
8862;DHT22;4799;50.996;4.754;2023-04-03T04:46:39;-0.50;99.90
8862;DHT22;4799;50.996;4.754;2023-04-03T04:49:04;-0.50;99.90
8862;DHT22;4799;50.996;4.754;2023-04-03T04:51:31;-0.50;99.90
8862;DHT22;4799;50.996;4.754;2023-04-03T04:53:56;-0.60;99.90
8862;DHT22;4799;50.996;4.754;2023-04-03T04:56:22;-0.60;99.90
8862;DHT22;4799;50.996;4.754;2023-04-03T04:58:48;-0.60;99.90
8862;DHT22;4799;50.996;4.754;2023-04-03T05:01:13;-0.60;99.90
8862;DHT22;4799;50.996;4.754;2023-04-03T05:03:39;-0.70;99.90
8862;DHT22;4799;50.996;4.754;2023-04-03T05:06:05;-0.70;99.90
8862;DHT22;4799;50.996;4.754;2023-04-03T05:08:31;-0.80;99.90
8862;DHT22;4799;50.996;4.754;2023-04-03T05:10:57;-0.80;99.90
8862;DHT22;4799;50.996;4.754;2023-04-03T05:13:23;-0.80;99.90
8862;DHT22;4799;50.996;4.754;2023-04-03T05:15:49;-0.80;99.90
8862;DHT22;4799;50.996;4.754;2023-04-03T05:18:15;-0.80;99.90
8862;DHT22;4799;50.996;4.754;2023-04-03T05:20:40;-0.90;99.90
8862;DHT22;4799;50.996;4.754;2023-04-03T05:23:06;-0.90;99.90
8862;DHT22;4799;50.996;4.754;2023-04-03T05:25:32;-0.90;99.90
8862;DHT22;4799;50.996;4.754;2023-04-03T05:27:58;-0.90;99.90
8862;DHT22;4799;50.996;4.754;2023-04-03T05:30:24;-0.90;99.90
8862;DHT22;4799;50.996;4.754;2023-04-03T05:32:50;-0.90;99.90
8862;DHT22;4799;50.996;4.754;2023-04-03T05:35:15;-0.90;99.90
8862;DHT22;4799;50.996;4.754;2023-04-03T05:37:41;-0.90;99.90
8862;DHT22;4799;50.996;4.754;2023-04-03T05:40:08;-0.90;99.90
8862;DHT22;4799;50.996;4.754;2023-04-03T05:42:34;-0.80;99.90
8862;DHT22;4799;50.996;4.754;2023-04-03T05:45:00;-0.80;99.90
8862;DHT22;4799;50.996;4.754;2023-04-03T05:47:25;-0.80;99.90
8862;DHT22;4799;50.996;4.754;2023-04-03T05:49:51;-0.70;99.90
8862;DHT22;4799;50.996;4.754;2023-04-03T05:52:29;-0.60;99.90
8862;DHT22;4799;50.996;4.754;2023-04-03T05:54:55;-0.50;99.90
8862;DHT22;4799;50.996;4.754;2023-04-03T05:57:21;-0.40;99.90
8862;DHT22;4799;50.996;4.754;2023-04-03T05:59:48;-0.30;99.90
8862;DHT22;4799;50.996;4.754;2023-04-03T06:02:20;-0.10;99.90
8862;DHT22;4799;50.996;4.754;2023-04-03T06:04:46;-0.10;99.90
8862;DHT22;4799;50.996;4.754;2023-04-03T06:07:22;0.00;99.90
8862;DHT22;4799;50.996;4.754;2023-04-03T06:09:50;0.10;99.90
8862;DHT22;4799;50.996;4.754;2023-04-03T06:12:16;0.20;99.90
8862;DHT22;4799;50.996;4.754;2023-04-03T06:14:43;0.30;99.90
8862;DHT22;4799;50.996;4.754;2023-04-03T06:17:08;0.40;99.90
8862;DHT22;4799;50.996;4.754;2023-04-03T06:19:35;0.40;99.90
8862;DHT22;4799;50.996;4.754;2023-04-03T06:22:01;0.50;99.90
8862;DHT22;4799;50.996;4.754;2023-04-03T06:24:28;0.50;99.90
8862;DHT22;4799;50.996;4.754;2023-04-03T06:26:54;0.60;99.90
8862;DHT22;4799;50.996;4.754;2023-04-03T06:29:20;0.70;99.90
8862;DHT22;4799;50.996;4.754;2023-04-03T06:31:46;0.70;99.90
8862;DHT22;4799;50.996;4.754;2023-04-03T06:34:13;0.80;99.90
8862;DHT22;4799;50.996;4.754;2023-04-03T06:36:39;0.90;99.90
8862;DHT22;4799;50.996;4.754;2023-04-03T06:39:06;0.90;99.90
8862;DHT22;4799;50.996;4.754;2023-04-03T06:41:32;1.00;99.90
8862;DHT22;4799;50.996;4.754;2023-04-03T06:43:58;1.10;99.90
8862;DHT22;4799;50.996;4.754;2023-04-03T06:46:26;1.20;99.90
8862;DHT22;4799;50.996;4.754;2023-04-03T06:48:52;1.30;99.90
8862;DHT22;4799;50.996;4.754;2023-04-03T06:51:23;1.30;99.90
8862;DHT22;4799;50.996;4.754;2023-04-03T06:53:50;1.40;99.90
8862;DHT22;4799;50.996;4.754;2023-04-03T06:56:17;1.50;99.90
8862;DHT22;4799;50.996;4.754;2023-04-03T06:58:44;1.60;99.90
8862;DHT22;4799;50.996;4.754;2023-04-03T07:01:12;1.70;99.90
8862;DHT22;4799;50.996;4.754;2023-04-03T07:03:38;1.80;99.90
8862;DHT22;4799;50.996;4.754;2023-04-03T07:06:05;1.80;99.90
8862;DHT22;4799;50.996;4.754;2023-04-03T07:08:33;1.90;99.90
8862;DHT22;4799;50.996;4.754;2023-04-03T07:10:59;2.00;99.90
8862;DHT22;4799;50.996;4.754;2023-04-03T07:13:25;2.10;99.90
8862;DHT22;4799;50.996;4.754;2023-04-03T07:15:50;2.20;99.90
8862;DHT22;4799;50.996;4.754;2023-04-03T07:18:16;2.20;99.90
8862;DHT22;4799;50.996;4.754;2023-04-03T07:20:45;2.30;99.90
8862;DHT22;4799;50.996;4.754;2023-04-03T07:23:11;2.40;99.90
8862;DHT22;4799;50.996;4.754;2023-04-03T07:25:41;2.50;99.90
8862;DHT22;4799;50.996;4.754;2023-04-03T07:28:07;2.50;99.90
8862;DHT22;4799;50.996;4.754;2023-04-03T07:30:33;2.60;99.90
8862;DHT22;4799;50.996;4.754;2023-04-03T07:32:59;2.70;99.90
8862;DHT22;4799;50.996;4.754;2023-04-03T07:35:25;2.70;99.90
8862;DHT22;4799;50.996;4.754;2023-04-03T07:37:51;2.80;99.90
8862;DHT22;4799;50.996;4.754;2023-04-03T07:40:16;2.80;99.90
8862;DHT22;4799;50.996;4.754;2023-04-03T07:42:42;2.90;99.90
8862;DHT22;4799;50.996;4.754;2023-04-03T07:45:08;3.00;99.90
8862;DHT22;4799;50.996;4.754;2023-04-03T07:47:34;3.10;99.90
8862;DHT22;4799;50.996;4.754;2023-04-03T07:50:00;3.20;99.90
8862;DHT22;4799;50.996;4.754;2023-04-03T07:52:26;3.30;99.90
8862;DHT22;4799;50.996;4.754;2023-04-03T07:54:51;3.30;99.90
8862;DHT22;4799;50.996;4.754;2023-04-03T07:57:17;3.40;99.90
8862;DHT22;4799;50.996;4.754;2023-04-03T07:59:43;3.50;99.90
8862;DHT22;4799;50.996;4.754;2023-04-03T08:02:10;3.60;99.90
8862;DHT22;4799;50.996;4.754;2023-04-03T08:04:35;3.60;99.90
8862;DHT22;4799;50.996;4.754;2023-04-03T08:07:01;3.70;99.90
8862;DHT22;4799;50.996;4.754;2023-04-03T08:09:27;3.70;99.90
8862;DHT22;4799;50.996;4.754;2023-04-03T08:11:53;3.80;99.90
8862;DHT22;4799;50.996;4.754;2023-04-03T08:14:19;3.90;99.90
8862;DHT22;4799;50.996;4.754;2023-04-03T08:16:46;4.00;99.90
8862;DHT22;4799;50.996;4.754;2023-04-03T08:19:13;4.00;99.90
8862;DHT22;4799;50.996;4.754;2023-04-03T08:21:40;4.10;99.90
8862;DHT22;4799;50.996;4.754;2023-04-03T08:24:10;4.20;99.90
8862;DHT22;4799;50.996;4.754;2023-04-03T08:26:36;4.20;99.90
8862;DHT22;4799;50.996;4.754;2023-04-03T08:29:02;4.30;99.90
8862;DHT22;4799;50.996;4.754;2023-04-03T08:31:28;4.40;99.90
8862;DHT22;4799;50.996;4.754;2023-04-03T08:33:54;4.40;99.90
8862;DHT22;4799;50.996;4.754;2023-04-03T08:36:25;4.60;99.90
8862;DHT22;4799;50.996;4.754;2023-04-03T08:38:52;4.70;99.90
8862;DHT22;4799;50.996;4.754;2023-04-03T08:44:18;4.80;99.90
8862;DHT22;4799;50.996;4.754;2023-04-03T08:49:49;5.00;99.90
8862;DHT22;4799;50.996;4.754;2023-04-03T08:55:26;5.10;99.90
8862;DHT22;4799;50.996;4.754;2023-04-03T08:58:02;5.20;99.90
8862;DHT22;4799;50.996;4.754;2023-04-03T09:00:44;5.30;99.90
8862;DHT22;4799;50.996;4.754;2023-04-03T09:03:13;5.40;99.90
8862;DHT22;4799;50.996;4.754;2023-04-03T09:08:41;5.60;99.90
8862;DHT22;4799;50.996;4.754;2023-04-03T09:11:24;5.60;99.90
8862;DHT22;4799;50.996;4.754;2023-04-03T09:19:44;5.90;99.90
8862;DHT22;4799;50.996;4.754;2023-04-03T09:22:25;5.90;99.90
8862;DHT22;4799;50.996;4.754;2023-04-03T09:25:15;6.00;99.90
8862;DHT22;4799;50.996;4.754;2023-04-03T09:27:43;6.10;99.90
8862;DHT22;4799;50.996;4.754;2023-04-03T09:30:16;6.10;99.90
8862;DHT22;4799;50.996;4.754;2023-04-03T09:32:45;6.20;99.90
8862;DHT22;4799;50.996;4.754;2023-04-03T09:35:26;6.20;99.90
8862;DHT22;4799;50.996;4.754;2023-04-03T09:38:13;6.30;99.90
8862;DHT22;4799;50.996;4.754;2023-04-03T09:40:45;6.40;99.90
8862;DHT22;4799;50.996;4.754;2023-04-03T09:45:43;6.40;99.90
8862;DHT22;4799;50.996;4.754;2023-04-03T09:56:25;6.70;99.90
8862;DHT22;4799;50.996;4.754;2023-04-03T09:59:06;6.70;99.90
8862;DHT22;4799;50.996;4.754;2023-04-03T10:01:42;6.80;99.90
8862;DHT22;4799;50.996;4.754;2023-04-03T10:04:17;6.90;99.90
8862;DHT22;4799;50.996;4.754;2023-04-03T10:06:47;6.90;99.90
8862;DHT22;4799;50.996;4.754;2023-04-03T10:09:31;6.90;99.90
8862;DHT22;4799;50.996;4.754;2023-04-03T10:14:30;6.90;99.90
8862;DHT22;4799;50.996;4.754;2023-04-03T10:19:43;7.00;99.90
8862;DHT22;4799;50.996;4.754;2023-04-03T10:22:23;7.00;97.30
8862;DHT22;4799;50.996;4.754;2023-04-03T10:25:01;7.10;96.70
8862;DHT22;4799;50.996;4.754;2023-04-03T10:27:59;7.10;95.10
8862;DHT22;4799;50.996;4.754;2023-04-03T10:36:30;7.50;94.90
8862;DHT22;4799;50.996;4.754;2023-04-03T10:47:22;7.60;93.70
8862;DHT22;4799;50.996;4.754;2023-04-03T10:57:49;7.80;93.90
8862;DHT22;4799;50.996;4.754;2023-04-03T11:00:23;7.90;92.90
8862;DHT22;4799;50.996;4.754;2023-04-03T11:03:03;8.00;92.80
8862;DHT22;4799;50.996;4.754;2023-04-03T11:05:54;8.00;91.50
8862;DHT22;4799;50.996;4.754;2023-04-03T11:08:36;8.00;86.30
8862;DHT22;4799;50.996;4.754;2023-04-03T11:11:08;8.10;85.80
8862;DHT22;4799;50.996;4.754;2023-04-03T11:13:49;8.10;85.90
8862;DHT22;4799;50.996;4.754;2023-04-03T11:16:26;8.20;86.00
8862;DHT22;4799;50.996;4.754;2023-04-03T11:19:20;8.20;78.60
8862;DHT22;4799;50.996;4.754;2023-04-03T11:22:00;8.30;79.90
8862;DHT22;4799;50.996;4.754;2023-04-03T11:24:29;8.30;78.30
8862;DHT22;4799;50.996;4.754;2023-04-03T11:26:57;8.30;77.80
8862;DHT22;4799;50.996;4.754;2023-04-03T11:29:29;8.30;78.20
8862;DHT22;4799;50.996;4.754;2023-04-03T11:32:03;8.40;79.40
8862;DHT22;4799;50.996;4.754;2023-04-03T11:34:42;8.40;73.60
8862;DHT22;4799;50.996;4.754;2023-04-03T11:37:16;8.40;69.60
8862;DHT22;4799;50.996;4.754;2023-04-03T11:39:58;8.50;70.10
8862;DHT22;4799;50.996;4.754;2023-04-03T11:42:33;8.50;68.10
8862;DHT22;4799;50.996;4.754;2023-04-03T11:47:49;8.60;63.30
8862;DHT22;4799;50.996;4.754;2023-04-03T12:16:05;8.80;52.20
8862;DHT22;4799;50.996;4.754;2023-04-03T12:29:02;9.20;54.60
8862;DHT22;4799;50.996;4.754;2023-04-03T12:37:48;9.30;53.60
8862;DHT22;4799;50.996;4.754;2023-04-03T12:40:31;9.30;52.90
8862;DHT22;4799;50.996;4.754;2023-04-03T12:48:27;9.40;53.70
8862;DHT22;4799;50.996;4.754;2023-04-03T12:50:53;9.40;54.00
8862;DHT22;4799;50.996;4.754;2023-04-03T12:53:25;9.40;54.70
8862;DHT22;4799;50.996;4.754;2023-04-03T12:55:56;9.40;55.00
8862;DHT22;4799;50.996;4.754;2023-04-03T12:58:25;9.50;54.70
8862;DHT22;4799;50.996;4.754;2023-04-03T13:01:21;9.50;53.60
8862;DHT22;4799;50.996;4.754;2023-04-03T13:03:51;9.50;53.60
8862;DHT22;4799;50.996;4.754;2023-04-03T13:06:21;9.60;52.40
8862;DHT22;4799;50.996;4.754;2023-04-03T13:08:55;9.60;51.40
8862;DHT22;4799;50.996;4.754;2023-04-03T13:11:24;9.60;51.50
8862;DHT22;4799;50.996;4.754;2023-04-03T13:13:59;9.70;52.80
8862;DHT22;4799;50.996;4.754;2023-04-03T13:16:25;9.70;52.70
8862;DHT22;4799;50.996;4.754;2023-04-03T13:18:55;9.70;53.20
8862;DHT22;4799;50.996;4.754;2023-04-03T13:21:30;9.80;52.80
8862;DHT22;4799;50.996;4.754;2023-04-03T13:24:01;9.70;50.40
8862;DHT22;4799;50.996;4.754;2023-04-03T13:26:32;9.80;50.20
8862;DHT22;4799;50.996;4.754;2023-04-03T13:29:05;9.80;49.70
8862;DHT22;4799;50.996;4.754;2023-04-03T13:31:37;9.80;49.70
8862;DHT22;4799;50.996;4.754;2023-04-03T13:36:38;9.80;49.20
8862;DHT22;4799;50.996;4.754;2023-04-03T13:41:46;9.90;49.10
8862;DHT22;4799;50.996;4.754;2023-04-03T13:46:49;9.90;49.60
8862;DHT22;4799;50.996;4.754;2023-04-03T13:51:44;10.00;50.80
8862;DHT22;4799;50.996;4.754;2023-04-03T13:54:20;10.00;51.30
8862;DHT22;4799;50.996;4.754;2023-04-03T13:56:53;10.10;51.80
8862;DHT22;4799;50.996;4.754;2023-04-03T13:59:35;10.10;51.00
8862;DHT22;4799;50.996;4.754;2023-04-03T14:06:55;10.20;49.00
8862;DHT22;4799;50.996;4.754;2023-04-03T14:09:22;10.20;49.10
8862;DHT22;4799;50.996;4.754;2023-04-03T14:11:50;10.20;49.20
8862;DHT22;4799;50.996;4.754;2023-04-03T14:14:23;10.20;49.70
8862;DHT22;4799;50.996;4.754;2023-04-03T14:16:55;10.20;49.70
8862;DHT22;4799;50.996;4.754;2023-04-03T14:19:29;10.30;51.00
8862;DHT22;4799;50.996;4.754;2023-04-03T14:21:56;10.40;50.90
8862;DHT22;4799;50.996;4.754;2023-04-03T14:24:22;10.40;50.50
8862;DHT22;4799;50.996;4.754;2023-04-03T14:26:50;10.40;50.00
8862;DHT22;4799;50.996;4.754;2023-04-03T14:29:18;10.40;49.70
8862;DHT22;4799;50.996;4.754;2023-04-03T14:31:45;10.40;50.60
8862;DHT22;4799;50.996;4.754;2023-04-03T14:34:12;10.40;50.50
8862;DHT22;4799;50.996;4.754;2023-04-03T14:36:39;10.50;50.70
8862;DHT22;4799;50.996;4.754;2023-04-03T14:39:07;10.40;49.30
8862;DHT22;4799;50.996;4.754;2023-04-03T14:41:34;10.40;48.30
8862;DHT22;4799;50.996;4.754;2023-04-03T14:44:00;10.40;47.60
8862;DHT22;4799;50.996;4.754;2023-04-03T14:46:29;10.40;48.40
8862;DHT22;4799;50.996;4.754;2023-04-03T14:48:56;10.40;49.70
8862;DHT22;4799;50.996;4.754;2023-04-03T14:51:21;10.40;49.30
8862;DHT22;4799;50.996;4.754;2023-04-03T14:53:47;10.40;48.50
8862;DHT22;4799;50.996;4.754;2023-04-03T14:56:27;10.30;47.40
8862;DHT22;4799;50.996;4.754;2023-04-03T14:58:58;10.30;47.50
8862;DHT22;4799;50.996;4.754;2023-04-03T15:01:25;10.30;47.50
8862;DHT22;4799;50.996;4.754;2023-04-03T15:03:51;10.20;46.90
8862;DHT22;4799;50.996;4.754;2023-04-03T15:06:17;10.20;46.80
8862;DHT22;4799;50.996;4.754;2023-04-03T15:08:44;10.20;47.20
8862;DHT22;4799;50.996;4.754;2023-04-03T15:11:11;10.20;47.60
8862;DHT22;4799;50.996;4.754;2023-04-03T15:13:37;10.20;47.10
8862;DHT22;4799;50.996;4.754;2023-04-03T15:16:12;10.20;47.20
8862;DHT22;4799;50.996;4.754;2023-04-03T15:18:40;10.20;47.60
8862;DHT22;4799;50.996;4.754;2023-04-03T15:21:06;10.20;47.80
8862;DHT22;4799;50.996;4.754;2023-04-03T15:23:32;10.20;48.20
8862;DHT22;4799;50.996;4.754;2023-04-03T15:25:57;10.20;47.20
8862;DHT22;4799;50.996;4.754;2023-04-03T15:30:53;10.10;47.30
8862;DHT22;4799;50.996;4.754;2023-04-03T15:33:19;10.10;47.30
8862;DHT22;4799;50.996;4.754;2023-04-03T15:35:45;10.10;47.30
8862;DHT22;4799;50.996;4.754;2023-04-03T15:38:11;10.10;47.80
8862;DHT22;4799;50.996;4.754;2023-04-03T15:40:37;10.10;47.90
8862;DHT22;4799;50.996;4.754;2023-04-03T15:43:05;10.10;48.60
8862;DHT22;4799;50.996;4.754;2023-04-03T15:45:32;10.20;49.10
8862;DHT22;4799;50.996;4.754;2023-04-03T15:47:59;10.20;49.50
8862;DHT22;4799;50.996;4.754;2023-04-03T15:50:24;10.20;49.60
8862;DHT22;4799;50.996;4.754;2023-04-03T15:52:51;10.20;49.60
8862;DHT22;4799;50.996;4.754;2023-04-03T15:55:24;10.20;49.10
8862;DHT22;4799;50.996;4.754;2023-04-03T15:57:51;10.20;48.70
8862;DHT22;4799;50.996;4.754;2023-04-03T16:00:17;10.20;49.20
8862;DHT22;4799;50.996;4.754;2023-04-03T16:02:45;10.30;49.60
8862;DHT22;4799;50.996;4.754;2023-04-03T16:05:12;10.30;49.80
8862;DHT22;4799;50.996;4.754;2023-04-03T16:07:39;10.30;50.10
8862;DHT22;4799;50.996;4.754;2023-04-03T16:10:07;10.30;49.80
8862;DHT22;4799;50.996;4.754;2023-04-03T16:12:33;10.40;49.30
8862;DHT22;4799;50.996;4.754;2023-04-03T16:14:59;10.40;48.80
8862;DHT22;4799;50.996;4.754;2023-04-03T16:17:26;10.40;49.30
8862;DHT22;4799;50.996;4.754;2023-04-03T16:19:53;10.40;49.70
8862;DHT22;4799;50.996;4.754;2023-04-03T16:22:20;10.40;49.70
8862;DHT22;4799;50.996;4.754;2023-04-03T16:24:46;10.40;49.30
8862;DHT22;4799;50.996;4.754;2023-04-03T16:27:12;10.40;49.40
8862;DHT22;4799;50.996;4.754;2023-04-03T16:29:37;10.30;49.20
8862;DHT22;4799;50.996;4.754;2023-04-03T16:32:03;10.30;49.20
8862;DHT22;4799;50.996;4.754;2023-04-03T16:34:29;10.20;49.50
8862;DHT22;4799;50.996;4.754;2023-04-03T16:36:58;10.20;50.80
8862;DHT22;4799;50.996;4.754;2023-04-03T16:39:24;10.20;50.00
8862;DHT22;4799;50.996;4.754;2023-04-03T16:41:50;10.20;50.00
8862;DHT22;4799;50.996;4.754;2023-04-03T16:44:15;10.20;49.50
8862;DHT22;4799;50.996;4.754;2023-04-03T16:46:41;10.20;50.20
8862;DHT22;4799;50.996;4.754;2023-04-03T16:49:07;10.10;50.80
8862;DHT22;4799;50.996;4.754;2023-04-03T16:51:33;10.10;51.60
8862;DHT22;4799;50.996;4.754;2023-04-03T16:53:58;10.10;51.70
8862;DHT22;4799;50.996;4.754;2023-04-03T16:56:25;10.10;51.50
8862;DHT22;4799;50.996;4.754;2023-04-03T16:58:53;10.10;52.00
8862;DHT22;4799;50.996;4.754;2023-04-03T17:01:21;10.10;51.70
8862;DHT22;4799;50.996;4.754;2023-04-03T17:03:47;10.20;52.00
8862;DHT22;4799;50.996;4.754;2023-04-03T17:06:18;10.50;51.90
8862;DHT22;4799;50.996;4.754;2023-04-03T17:08:45;10.80;51.60
8862;DHT22;4799;50.996;4.754;2023-04-03T17:11:12;11.10;51.50
8862;DHT22;4799;50.996;4.754;2023-04-03T17:13:37;11.30;50.10
8862;DHT22;4799;50.996;4.754;2023-04-03T17:16:04;11.30;49.60
8862;DHT22;4799;50.996;4.754;2023-04-03T17:18:32;11.50;50.00
8862;DHT22;4799;50.996;4.754;2023-04-03T17:20:58;11.70;50.10
8862;DHT22;4799;50.996;4.754;2023-04-03T17:23:25;11.90;50.00
8862;DHT22;4799;50.996;4.754;2023-04-03T17:25:52;11.90;49.00
8862;DHT22;4799;50.996;4.754;2023-04-03T17:28:20;12.00;48.40
8862;DHT22;4799;50.996;4.754;2023-04-03T17:30:47;11.90;48.00
8862;DHT22;4799;50.996;4.754;2023-04-03T17:33:13;11.80;48.50
8862;DHT22;4799;50.996;4.754;2023-04-03T17:35:39;11.40;48.60
8862;DHT22;4799;50.996;4.754;2023-04-03T17:38:04;11.00;49.00
8862;DHT22;4799;50.996;4.754;2023-04-03T17:40:30;10.60;48.80
8862;DHT22;4799;50.996;4.754;2023-04-03T17:42:56;10.30;49.20
8862;DHT22;4799;50.996;4.754;2023-04-03T17:45:22;10.10;49.80
8862;DHT22;4799;50.996;4.754;2023-04-03T17:47:51;9.80;51.40
8862;DHT22;4799;50.996;4.754;2023-04-03T17:50:19;9.60;51.60
8862;DHT22;4799;50.996;4.754;2023-04-03T17:52:45;9.40;52.10
8862;DHT22;4799;50.996;4.754;2023-04-03T17:55:10;9.20;52.60
8862;DHT22;4799;50.996;4.754;2023-04-03T17:57:37;9.10;52.90
8862;DHT22;4799;50.996;4.754;2023-04-03T18:00:04;8.90;53.10
8862;DHT22;4799;50.996;4.754;2023-04-03T18:02:31;8.80;53.50
8862;DHT22;4799;50.996;4.754;2023-04-03T18:04:57;8.70;53.80
8862;DHT22;4799;50.996;4.754;2023-04-03T18:07:23;8.60;54.00
8862;DHT22;4799;50.996;4.754;2023-04-03T18:09:49;8.50;54.40
8862;DHT22;4799;50.996;4.754;2023-04-03T18:12:16;8.40;54.50
8862;DHT22;4799;50.996;4.754;2023-04-03T18:14:43;8.30;54.90
8862;DHT22;4799;50.996;4.754;2023-04-03T18:17:09;8.20;55.20
8862;DHT22;4799;50.996;4.754;2023-04-03T18:19:35;8.10;55.40
8862;DHT22;4799;50.996;4.754;2023-04-03T18:22:05;8.00;56.00
8862;DHT22;4799;50.996;4.754;2023-04-03T18:24:34;7.80;56.30
8862;DHT22;4799;50.996;4.754;2023-04-03T18:27:12;7.70;56.70
8862;DHT22;4799;50.996;4.754;2023-04-03T18:29:40;7.70;57.10